sensor_id;sensor_type;location;lat;lon;timestamp;P1;durP1;ratioP1;P2;durP2;ratioP2
42488;SDS011;28118;52.388;9.452;2023-01-16T00:01:20;2.75;;;1.63;;
42488;SDS011;28118;52.388;9.452;2023-01-16T00:03:48;1.05;;;0.82;;
42488;SDS011;28118;52.388;9.452;2023-01-16T00:06:15;2.00;;;1.17;;
42488;SDS011;28118;52.388;9.452;2023-01-16T00:08:42;3.05;;;2.08;;
42488;SDS011;28118;52.388;9.452;2023-01-16T00:11:10;4.88;;;1.85;;
42488;SDS011;28118;52.388;9.452;2023-01-16T00:13:37;4.00;;;1.67;;
42488;SDS011;28118;52.388;9.452;2023-01-16T00:16:04;3.30;;;2.20;;
42488;SDS011;28118;52.388;9.452;2023-01-16T00:18:31;6.65;;;1.55;;
42488;SDS011;28118;52.388;9.452;2023-01-16T00:20:58;5.82;;;1.30;;
42488;SDS011;28118;52.388;9.452;2023-01-16T00:23:25;2.35;;;1.65;;
42488;SDS011;28118;52.388;9.452;2023-01-16T00:25:51;6.88;;;2.00;;
42488;SDS011;28118;52.388;9.452;2023-01-16T00:28:18;2.08;;;0.98;;
42488;SDS011;28118;52.388;9.452;2023-01-16T00:30:45;11.30;;;2.70;;
42488;SDS011;28118;52.388;9.452;2023-01-16T00:33:12;3.05;;;2.17;;
42488;SDS011;28118;52.388;9.452;2023-01-16T00:35:38;1.30;;;1.05;;
42488;SDS011;28118;52.388;9.452;2023-01-16T00:38:05;4.15;;;2.05;;
42488;SDS011;28118;52.388;9.452;2023-01-16T00:40:32;2.70;;;1.20;;
42488;SDS011;28118;52.388;9.452;2023-01-16T00:42:58;3.97;;;1.95;;
42488;SDS011;28118;52.388;9.452;2023-01-16T00:45:25;3.30;;;1.58;;
42488;SDS011;28118;52.388;9.452;2023-01-16T00:47:51;7.97;;;2.03;;
42488;SDS011;28118;52.388;9.452;2023-01-16T00:50:18;6.97;;;1.65;;
42488;SDS011;28118;52.388;9.452;2023-01-16T00:52:45;2.97;;;1.80;;
42488;SDS011;28118;52.388;9.452;2023-01-16T00:55:11;2.30;;;1.88;;
42488;SDS011;28118;52.388;9.452;2023-01-16T00:57:38;5.15;;;1.98;;
42488;SDS011;28118;52.388;9.452;2023-01-16T01:00:04;2.95;;;2.08;;
42488;SDS011;28118;52.388;9.452;2023-01-16T01:02:32;2.22;;;1.05;;
42488;SDS011;28118;52.388;9.452;2023-01-16T01:04:58;2.65;;;1.02;;
42488;SDS011;28118;52.388;9.452;2023-01-16T01:07:25;4.22;;;2.05;;
42488;SDS011;28118;52.388;9.452;2023-01-16T01:09:52;3.80;;;1.70;;
42488;SDS011;28118;52.388;9.452;2023-01-16T01:12:18;2.72;;;1.63;;
42488;SDS011;28118;52.388;9.452;2023-01-16T01:14:45;3.95;;;1.98;;
42488;SDS011;28118;52.388;9.452;2023-01-16T01:17:11;3.55;;;1.92;;
42488;SDS011;28118;52.388;9.452;2023-01-16T01:19:38;4.38;;;2.13;;
42488;SDS011;28118;52.388;9.452;2023-01-16T01:22:05;6.43;;;2.00;;
42488;SDS011;28118;52.388;9.452;2023-01-16T01:24:31;7.15;;;1.35;;
42488;SDS011;28118;52.388;9.452;2023-01-16T01:26:58;2.60;;;1.58;;
42488;SDS011;28118;52.388;9.452;2023-01-16T01:29:24;5.28;;;1.23;;
42488;SDS011;28118;52.388;9.452;2023-01-16T01:31:51;4.05;;;1.77;;
42488;SDS011;28118;52.388;9.452;2023-01-16T01:34:18;2.70;;;1.30;;
42488;SDS011;28118;52.388;9.452;2023-01-16T01:36:44;1.58;;;1.20;;
42488;SDS011;28118;52.388;9.452;2023-01-16T01:39:11;8.50;;;2.22;;
42488;SDS011;28118;52.388;9.452;2023-01-16T01:41:37;2.95;;;1.58;;
42488;SDS011;28118;52.388;9.452;2023-01-16T01:47:08;7.38;;;1.60;;
42488;SDS011;28118;52.388;9.452;2023-01-16T01:49:35;3.90;;;1.85;;
42488;SDS011;28118;52.388;9.452;2023-01-16T01:52:03;3.50;;;1.67;;
42488;SDS011;28118;52.388;9.452;2023-01-16T01:54:32;1.85;;;1.27;;
42488;SDS011;28118;52.388;9.452;2023-01-16T01:57:08;2.08;;;1.30;;
42488;SDS011;28118;52.388;9.452;2023-01-16T01:59:42;5.43;;;1.20;;
42488;SDS011;28118;52.388;9.452;2023-01-16T02:02:36;1.67;;;1.33;;
42488;SDS011;28118;52.388;9.452;2023-01-16T02:05:08;6.30;;;1.45;;
42488;SDS011;28118;52.388;9.452;2023-01-16T02:07:36;2.92;;;1.08;;
42488;SDS011;28118;52.388;9.452;2023-01-16T02:10:05;1.70;;;0.98;;
42488;SDS011;28118;52.388;9.452;2023-01-16T02:12:55;2.83;;;0.70;;
42488;SDS011;28118;52.388;9.452;2023-01-16T02:15:23;1.75;;;1.52;;
42488;SDS011;28118;52.388;9.452;2023-01-16T02:17:50;3.85;;;0.93;;
42488;SDS011;28118;52.388;9.452;2023-01-16T02:20:40;1.88;;;1.17;;
42488;SDS011;28118;52.388;9.452;2023-01-16T02:23:29;1.52;;;1.17;;
42488;SDS011;28118;52.388;9.452;2023-01-16T02:44:18;2.58;;;1.27;;
42488;SDS011;28118;52.388;9.452;2023-01-16T02:46:16;2.08;;;0.90;;
42488;SDS011;28118;52.388;9.452;2023-01-16T02:48:51;1.58;;;1.10;;
42488;SDS011;28118;52.388;9.452;2023-01-16T02:51:34;3.60;;;1.73;;
42488;SDS011;28118;52.388;9.452;2023-01-16T02:54:30;1.40;;;1.20;;
42488;SDS011;28118;52.388;9.452;2023-01-16T02:57:04;3.10;;;2.78;;
42488;SDS011;28118;52.388;9.452;2023-01-16T02:59:46;3.22;;;2.00;;
42488;SDS011;28118;52.388;9.452;2023-01-16T03:02:14;3.35;;;1.20;;
42488;SDS011;28118;52.388;9.452;2023-01-16T03:04:43;3.83;;;2.83;;
42488;SDS011;28118;52.388;9.452;2023-01-16T03:13:38;8.38;;;2.05;;
42488;SDS011;28118;52.388;9.452;2023-01-16T03:16:26;1.77;;;1.25;;
42488;SDS011;28118;52.388;9.452;2023-01-16T03:19:04;2.53;;;1.45;;
42488;SDS011;28118;52.388;9.452;2023-01-16T03:22:24;2.25;;;1.88;;
42488;SDS011;28118;52.388;9.452;2023-01-16T03:25:11;3.42;;;1.60;;
42488;SDS011;28118;52.388;9.452;2023-01-16T03:30:44;1.98;;;1.23;;
42488;SDS011;28118;52.388;9.452;2023-01-16T03:35:57;5.20;;;2.45;;
42488;SDS011;28118;52.388;9.452;2023-01-16T03:38:33;7.72;;;1.10;;
42488;SDS011;28118;52.388;9.452;2023-01-16T03:41:03;1.95;;;0.98;;
42488;SDS011;28118;52.388;9.452;2023-01-16T03:51:24;1.80;;;1.33;;
42488;SDS011;28118;52.388;9.452;2023-01-16T03:54:10;1.27;;;0.98;;
42488;SDS011;28118;52.388;9.452;2023-01-16T03:56:58;1.52;;;0.90;;
42488;SDS011;28118;52.388;9.452;2023-01-16T03:59:39;2.42;;;1.42;;
42488;SDS011;28118;52.388;9.452;2023-01-16T04:05:07;0.77;;;0.52;;
42488;SDS011;28118;52.388;9.452;2023-01-16T04:10:25;2.58;;;1.40;;
42488;SDS011;28118;52.388;9.452;2023-01-16T04:12:55;1.58;;;1.23;;
42488;SDS011;28118;52.388;9.452;2023-01-16T04:15:27;1.50;;;1.10;;
42488;SDS011;28118;52.388;9.452;2023-01-16T04:17:57;1.77;;;1.05;;
42488;SDS011;28118;52.388;9.452;2023-01-16T04:20:25;1.70;;;1.20;;
42488;SDS011;28118;52.388;9.452;2023-01-16T04:22:53;2.85;;;1.13;;
42488;SDS011;28118;52.388;9.452;2023-01-16T04:25:20;2.60;;;1.65;;
42488;SDS011;28118;52.388;9.452;2023-01-16T04:27:47;5.63;;;1.92;;
42488;SDS011;28118;52.388;9.452;2023-01-16T04:30:14;2.08;;;1.67;;
42488;SDS011;28118;52.388;9.452;2023-01-16T04:32:41;1.50;;;0.98;;
42488;SDS011;28118;52.388;9.452;2023-01-16T04:35:09;4.43;;;2.13;;
42488;SDS011;28118;52.388;9.452;2023-01-16T04:37:36;3.10;;;1.77;;
42488;SDS011;28118;52.388;9.452;2023-01-16T04:40:03;3.53;;;1.30;;
42488;SDS011;28118;52.388;9.452;2023-01-16T04:42:30;5.35;;;1.60;;
42488;SDS011;28118;52.388;9.452;2023-01-16T04:44:56;1.23;;;1.02;;
42488;SDS011;28118;52.388;9.452;2023-01-16T04:47:23;1.20;;;0.85;;
42488;SDS011;28118;52.388;9.452;2023-01-16T04:49:49;3.17;;;1.73;;
42488;SDS011;28118;52.388;9.452;2023-01-16T04:52:16;1.50;;;1.17;;
42488;SDS011;28118;52.388;9.452;2023-01-16T04:54:43;3.17;;;1.83;;
42488;SDS011;28118;52.388;9.452;2023-01-16T04:57:09;1.67;;;1.17;;
42488;SDS011;28118;52.388;9.452;2023-01-16T04:59:36;1.52;;;1.42;;
42488;SDS011;28118;52.388;9.452;2023-01-16T05:02:02;1.80;;;1.70;;
42488;SDS011;28118;52.388;9.452;2023-01-16T05:04:30;2.45;;;1.83;;
42488;SDS011;28118;52.388;9.452;2023-01-16T05:06:56;2.03;;;1.42;;
42488;SDS011;28118;52.388;9.452;2023-01-16T05:09:23;1.73;;;1.52;;
42488;SDS011;28118;52.388;9.452;2023-01-16T05:11:50;0.82;;;0.47;;
42488;SDS011;28118;52.388;9.452;2023-01-16T05:14:16;2.28;;;1.23;;
42488;SDS011;28118;52.388;9.452;2023-01-16T05:16:43;1.60;;;1.50;;
42488;SDS011;28118;52.388;9.452;2023-01-16T05:19:10;4.22;;;1.38;;
42488;SDS011;28118;52.388;9.452;2023-01-16T05:21:36;3.60;;;1.20;;
42488;SDS011;28118;52.388;9.452;2023-01-16T05:24:03;2.08;;;1.42;;
42488;SDS011;28118;52.388;9.452;2023-01-16T05:26:30;2.33;;;1.60;;
42488;SDS011;28118;52.388;9.452;2023-01-16T05:28:57;2.90;;;1.95;;
42488;SDS011;28118;52.388;9.452;2023-01-16T05:31:24;2.20;;;1.65;;
42488;SDS011;28118;52.388;9.452;2023-01-16T05:33:51;2.22;;;1.38;;
42488;SDS011;28118;52.388;9.452;2023-01-16T05:36:17;1.60;;;1.15;;
42488;SDS011;28118;52.388;9.452;2023-01-16T05:38:44;4.00;;;1.33;;
42488;SDS011;28118;52.388;9.452;2023-01-16T05:41:12;1.60;;;1.10;;
42488;SDS011;28118;52.388;9.452;2023-01-16T05:43:39;1.50;;;1.30;;
42488;SDS011;28118;52.388;9.452;2023-01-16T05:46:05;1.60;;;1.30;;
42488;SDS011;28118;52.388;9.452;2023-01-16T05:48:32;1.63;;;1.17;;
42488;SDS011;28118;52.388;9.452;2023-01-16T05:51:02;1.90;;;1.13;;
42488;SDS011;28118;52.388;9.452;2023-01-16T05:53:29;1.92;;;1.42;;
42488;SDS011;28118;52.388;9.452;2023-01-16T05:55:56;3.50;;;1.40;;
42488;SDS011;28118;52.388;9.452;2023-01-16T05:58:24;3.78;;;1.30;;
42488;SDS011;28118;52.388;9.452;2023-01-16T06:00:51;2.88;;;1.90;;
42488;SDS011;28118;52.388;9.452;2023-01-16T06:03:17;3.42;;;2.15;;
42488;SDS011;28118;52.388;9.452;2023-01-16T06:05:44;2.83;;;1.83;;
42488;SDS011;28118;52.388;9.452;2023-01-16T06:08:10;1.90;;;1.70;;
42488;SDS011;28118;52.388;9.452;2023-01-16T06:10:37;1.50;;;1.20;;
42488;SDS011;28118;52.388;9.452;2023-01-16T06:13:04;2.47;;;1.77;;
42488;SDS011;28118;52.388;9.452;2023-01-16T06:15:30;2.90;;;1.33;;
42488;SDS011;28118;52.388;9.452;2023-01-16T06:17:57;1.48;;;1.00;;
42488;SDS011;28118;52.388;9.452;2023-01-16T06:20:24;7.70;;;0.88;;
42488;SDS011;28118;52.388;9.452;2023-01-16T06:22:51;2.08;;;1.88;;
42488;SDS011;28118;52.388;9.452;2023-01-16T06:25:17;3.25;;;1.42;;
42488;SDS011;28118;52.388;9.452;2023-01-16T06:27:51;1.60;;;1.27;;
42488;SDS011;28118;52.388;9.452;2023-01-16T06:30:18;2.13;;;1.38;;
42488;SDS011;28118;52.388;9.452;2023-01-16T06:32:48;1.65;;;1.20;;
42488;SDS011;28118;52.388;9.452;2023-01-16T06:35:19;2.38;;;1.23;;
42488;SDS011;28118;52.388;9.452;2023-01-16T06:37:45;2.45;;;1.23;;
42488;SDS011;28118;52.388;9.452;2023-01-16T06:40:12;1.52;;;1.40;;
42488;SDS011;28118;52.388;9.452;2023-01-16T06:42:38;5.63;;;1.77;;
42488;SDS011;28118;52.388;9.452;2023-01-16T06:45:05;2.15;;;1.50;;
42488;SDS011;28118;52.388;9.452;2023-01-16T06:47:32;6.68;;;1.65;;
42488;SDS011;28118;52.388;9.452;2023-01-16T06:49:59;1.20;;;0.80;;
42488;SDS011;28118;52.388;9.452;2023-01-16T06:52:26;2.08;;;1.58;;
42488;SDS011;28118;52.388;9.452;2023-01-16T06:54:52;4.95;;;1.40;;
42488;SDS011;28118;52.388;9.452;2023-01-16T06:57:19;1.90;;;1.35;;
42488;SDS011;28118;52.388;9.452;2023-01-16T06:59:46;2.25;;;1.30;;
42488;SDS011;28118;52.388;9.452;2023-01-16T07:02:12;2.63;;;1.73;;
42488;SDS011;28118;52.388;9.452;2023-01-16T07:04:39;2.38;;;1.52;;
42488;SDS011;28118;52.388;9.452;2023-01-16T07:07:06;5.53;;;1.60;;
42488;SDS011;28118;52.388;9.452;2023-01-16T07:09:32;1.92;;;1.17;;
42488;SDS011;28118;52.388;9.452;2023-01-16T07:11:59;4.70;;;2.08;;
42488;SDS011;28118;52.388;9.452;2023-01-16T07:14:26;1.98;;;1.73;;
42488;SDS011;28118;52.388;9.452;2023-01-16T07:17:11;4.85;;;2.10;;
42488;SDS011;28118;52.388;9.452;2023-01-16T07:19:57;3.65;;;1.88;;
42488;SDS011;28118;52.388;9.452;2023-01-16T07:22:42;3.28;;;2.55;;
42488;SDS011;28118;52.388;9.452;2023-01-16T07:25:16;1.75;;;1.25;;
42488;SDS011;28118;52.388;9.452;2023-01-16T07:27:46;4.65;;;2.13;;
42488;SDS011;28118;52.388;9.452;2023-01-16T07:30:15;2.28;;;1.52;;
42488;SDS011;28118;52.388;9.452;2023-01-16T07:32:44;2.53;;;1.95;;
42488;SDS011;28118;52.388;9.452;2023-01-16T07:35:11;3.58;;;2.00;;
42488;SDS011;28118;52.388;9.452;2023-01-16T07:37:37;1.50;;;1.00;;
42488;SDS011;28118;52.388;9.452;2023-01-16T07:40:05;4.07;;;1.73;;
42488;SDS011;28118;52.388;9.452;2023-01-16T07:42:32;2.28;;;1.98;;
42488;SDS011;28118;52.388;9.452;2023-01-16T07:44:59;1.70;;;1.38;;
42488;SDS011;28118;52.388;9.452;2023-01-16T07:47:26;2.25;;;1.40;;
42488;SDS011;28118;52.388;9.452;2023-01-16T07:49:52;1.98;;;1.45;;
42488;SDS011;28118;52.388;9.452;2023-01-16T07:52:19;1.63;;;1.08;;
42488;SDS011;28118;52.388;9.452;2023-01-16T07:54:45;2.67;;;1.30;;
42488;SDS011;28118;52.388;9.452;2023-01-16T07:57:12;3.10;;;1.83;;
42488;SDS011;28118;52.388;9.452;2023-01-16T07:59:39;1.48;;;1.15;;
42488;SDS011;28118;52.388;9.452;2023-01-16T08:02:05;4.53;;;1.95;;
42488;SDS011;28118;52.388;9.452;2023-01-16T08:04:33;1.73;;;1.52;;
42488;SDS011;28118;52.388;9.452;2023-01-16T08:07:00;3.60;;;2.15;;
42488;SDS011;28118;52.388;9.452;2023-01-16T08:09:27;1.98;;;1.20;;
42488;SDS011;28118;52.388;9.452;2023-01-16T08:11:53;2.58;;;1.50;;
42488;SDS011;28118;52.388;9.452;2023-01-16T08:14:20;5.95;;;2.53;;
42488;SDS011;28118;52.388;9.452;2023-01-16T08:16:46;3.92;;;1.98;;
42488;SDS011;28118;52.388;9.452;2023-01-16T08:19:13;4.38;;;1.63;;
42488;SDS011;28118;52.388;9.452;2023-01-16T08:21:40;5.65;;;2.42;;
42488;SDS011;28118;52.388;9.452;2023-01-16T08:24:07;9.10;;;3.10;;
42488;SDS011;28118;52.388;9.452;2023-01-16T08:26:35;2.63;;;1.48;;
42488;SDS011;28118;52.388;9.452;2023-01-16T08:29:02;3.83;;;2.58;;
42488;SDS011;28118;52.388;9.452;2023-01-16T08:31:29;4.30;;;2.78;;
42488;SDS011;28118;52.388;9.452;2023-01-16T08:33:56;1.90;;;1.63;;
42488;SDS011;28118;52.388;9.452;2023-01-16T08:36:23;5.82;;;2.05;;
42488;SDS011;28118;52.388;9.452;2023-01-16T08:38:51;7.40;;;1.50;;
42488;SDS011;28118;52.388;9.452;2023-01-16T08:41:18;1.73;;;1.30;;
42488;SDS011;28118;52.388;9.452;2023-01-16T08:44:03;3.72;;;2.05;;
42488;SDS011;28118;52.388;9.452;2023-01-16T08:49:48;4.10;;;2.08;;
42488;SDS011;28118;52.388;9.452;2023-01-16T08:52:33;2.40;;;1.70;;
42488;SDS011;28118;52.388;9.452;2023-01-16T08:55:03;1.90;;;1.45;;
42488;SDS011;28118;52.388;9.452;2023-01-16T08:57:30;4.18;;;3.13;;
42488;SDS011;28118;52.388;9.452;2023-01-16T08:59:57;7.95;;;3.55;;
42488;SDS011;28118;52.388;9.452;2023-01-16T09:02:24;1.90;;;1.67;;
42488;SDS011;28118;52.388;9.452;2023-01-16T09:04:53;4.65;;;2.60;;
42488;SDS011;28118;52.388;9.452;2023-01-16T09:07:21;4.22;;;2.28;;
42488;SDS011;28118;52.388;9.452;2023-01-16T09:09:48;5.32;;;3.15;;
42488;SDS011;28118;52.388;9.452;2023-01-16T09:12:15;2.83;;;1.90;;
42488;SDS011;28118;52.388;9.452;2023-01-16T09:15:00;5.72;;;1.77;;
42488;SDS011;28118;52.388;9.452;2023-01-16T09:17:28;1.50;;;1.00;;
42488;SDS011;28118;52.388;9.452;2023-01-16T09:19:55;1.67;;;1.10;;
42488;SDS011;28118;52.388;9.452;2023-01-16T09:22:21;2.00;;;1.73;;
42488;SDS011;28118;52.388;9.452;2023-01-16T09:24:51;3.45;;;3.15;;
42488;SDS011;28118;52.388;9.452;2023-01-16T09:27:18;2.13;;;1.75;;
42488;SDS011;28118;52.388;9.452;2023-01-16T09:29:45;2.05;;;1.42;;
42488;SDS011;28118;52.388;9.452;2023-01-16T09:32:12;2.35;;;2.10;;
42488;SDS011;28118;52.388;9.452;2023-01-16T09:34:39;2.72;;;1.60;;
42488;SDS011;28118;52.388;9.452;2023-01-16T09:37:07;2.58;;;1.85;;
42488;SDS011;28118;52.388;9.452;2023-01-16T09:39:34;5.25;;;1.75;;
42488;SDS011;28118;52.388;9.452;2023-01-16T09:47:30;2.88;;;2.33;;
42488;SDS011;28118;52.388;9.452;2023-01-16T09:50:01;3.75;;;1.17;;
42488;SDS011;28118;52.388;9.452;2023-01-16T09:52:31;3.40;;;1.73;;
42488;SDS011;28118;52.388;9.452;2023-01-16T09:55:38;1.17;;;0.98;;
42488;SDS011;28118;52.388;9.452;2023-01-16T09:58:26;7.95;;;1.75;;
42488;SDS011;28118;52.388;9.452;2023-01-16T10:03:33;2.25;;;1.85;;
42488;SDS011;28118;52.388;9.452;2023-01-16T10:08:30;4.13;;;1.70;;
42488;SDS011;28118;52.388;9.452;2023-01-16T10:11:08;1.02;;;0.77;;
42488;SDS011;28118;52.388;9.452;2023-01-16T10:30:28;13.25;;;2.17;;
42488;SDS011;28118;52.388;9.452;2023-01-16T10:33:24;2.42;;;1.40;;
42488;SDS011;28118;52.388;9.452;2023-01-16T10:35:53;3.22;;;1.85;;
42488;SDS011;28118;52.388;9.452;2023-01-16T10:38:40;1.45;;;1.17;;
42488;SDS011;28118;52.388;9.452;2023-01-16T10:41:17;3.95;;;1.67;;
42488;SDS011;28118;52.388;9.452;2023-01-16T10:44:11;2.30;;;1.50;;
42488;SDS011;28118;52.388;9.452;2023-01-16T10:47:07;6.68;;;1.67;;
42488;SDS011;28118;52.388;9.452;2023-01-16T10:49:54;2.40;;;1.35;;
42488;SDS011;28118;52.388;9.452;2023-01-16T10:52:21;2.55;;;2.30;;
42488;SDS011;28118;52.388;9.452;2023-01-16T10:54:48;4.28;;;2.53;;
42488;SDS011;28118;52.388;9.452;2023-01-16T10:57:15;5.57;;;2.15;;
42488;SDS011;28118;52.388;9.452;2023-01-16T10:59:44;3.15;;;1.42;;
42488;SDS011;28118;52.388;9.452;2023-01-16T11:02:22;10.73;;;1.95;;
42488;SDS011;28118;52.388;9.452;2023-01-16T11:04:59;2.30;;;1.70;;
42488;SDS011;28118;52.388;9.452;2023-01-16T11:07:28;3.30;;;1.35;;
42488;SDS011;28118;52.388;9.452;2023-01-16T11:09:55;3.33;;;1.98;;
42488;SDS011;28118;52.388;9.452;2023-01-16T11:15:21;7.43;;;3.33;;
42488;SDS011;28118;52.388;9.452;2023-01-16T11:18:18;10.32;;;3.95;;
42488;SDS011;28118;52.388;9.452;2023-01-16T11:20:55;3.63;;;2.15;;
42488;SDS011;28118;52.388;9.452;2023-01-16T11:23:24;5.10;;;3.28;;
42488;SDS011;28118;52.388;9.452;2023-01-16T11:25:54;2.05;;;1.77;;
42488;SDS011;28118;52.388;9.452;2023-01-16T11:28:25;2.33;;;1.70;;
42488;SDS011;28118;52.388;9.452;2023-01-16T11:30:57;2.08;;;1.48;;
42488;SDS011;28118;52.388;9.452;2023-01-16T11:33:37;2.38;;;1.83;;
42488;SDS011;28118;52.388;9.452;2023-01-16T11:36:07;2.42;;;1.58;;
42488;SDS011;28118;52.388;9.452;2023-01-16T11:38:35;7.85;;;1.52;;
42488;SDS011;28118;52.388;9.452;2023-01-16T11:41:05;1.10;;;0.80;;
42488;SDS011;28118;52.388;9.452;2023-01-16T11:43:34;1.30;;;0.95;;
42488;SDS011;28118;52.388;9.452;2023-01-16T11:48:49;3.53;;;1.38;;
42488;SDS011;28118;52.388;9.452;2023-01-16T11:51:20;1.55;;;1.08;;
42488;SDS011;28118;52.388;9.452;2023-01-16T11:53:52;1.30;;;0.93;;
42488;SDS011;28118;52.388;9.452;2023-01-16T11:56:29;4.18;;;2.40;;
42488;SDS011;28118;52.388;9.452;2023-01-16T11:59:23;4.28;;;2.22;;
42488;SDS011;28118;52.388;9.452;2023-01-16T12:02:06;2.42;;;1.80;;
42488;SDS011;28118;52.388;9.452;2023-01-16T12:04:46;4.55;;;1.65;;
42488;SDS011;28118;52.388;9.452;2023-01-16T12:07:56;3.95;;;1.85;;
42488;SDS011;28118;52.388;9.452;2023-01-16T12:11:01;2.03;;;1.50;;
42488;SDS011;28118;52.388;9.452;2023-01-16T12:13:40;4.65;;;1.83;;
42488;SDS011;28118;52.388;9.452;2023-01-16T12:34:08;1.33;;;0.93;;
42488;SDS011;28118;52.388;9.452;2023-01-16T12:36:53;8.45;;;1.95;;
42488;SDS011;28118;52.388;9.452;2023-01-16T12:42:34;2.30;;;1.55;;
42488;SDS011;28118;52.388;9.452;2023-01-16T12:59:33;1.85;;;1.27;;
42488;SDS011;28118;52.388;9.452;2023-01-16T13:02:05;0.80;;;0.73;;
42488;SDS011;28118;52.388;9.452;2023-01-16T13:04:37;3.22;;;2.45;;
42488;SDS011;28118;52.388;9.452;2023-01-16T13:07:11;20.75;;;7.13;;
42488;SDS011;28118;52.388;9.452;2023-01-16T13:12:57;13.45;;;6.60;;
42488;SDS011;28118;52.388;9.452;2023-01-16T13:15:45;6.82;;;6.20;;
42488;SDS011;28118;52.388;9.452;2023-01-16T13:20:47;7.75;;;4.82;;
42488;SDS011;28118;52.388;9.452;2023-01-16T13:23:25;19.65;;;8.38;;
42488;SDS011;28118;52.388;9.452;2023-01-16T13:25:57;5.32;;;4.43;;
42488;SDS011;28118;52.388;9.452;2023-01-16T13:28:35;6.03;;;2.78;;
42488;SDS011;28118;52.388;9.452;2023-01-16T13:31:04;3.95;;;2.33;;
42488;SDS011;28118;52.388;9.452;2023-01-16T13:33:37;3.47;;;1.90;;
42488;SDS011;28118;52.388;9.452;2023-01-16T13:42:03;5.07;;;2.63;;
42488;SDS011;28118;52.388;9.452;2023-01-16T13:44:37;7.25;;;2.17;;
42488;SDS011;28118;52.388;9.452;2023-01-16T13:47:35;2.85;;;1.35;;
42488;SDS011;28118;52.388;9.452;2023-01-16T13:52:41;1.48;;;1.05;;
42488;SDS011;28118;52.388;9.452;2023-01-16T13:55:18;3.03;;;2.22;;
42488;SDS011;28118;52.388;9.452;2023-01-16T14:01:05;2.08;;;1.48;;
42488;SDS011;28118;52.388;9.452;2023-01-16T14:03:33;1.50;;;1.27;;
42488;SDS011;28118;52.388;9.452;2023-01-16T14:11:39;2.70;;;1.58;;
42488;SDS011;28118;52.388;9.452;2023-01-16T14:20:35;1.35;;;1.05;;
42488;SDS011;28118;52.388;9.452;2023-01-16T14:26:18;1.00;;;0.75;;
42488;SDS011;28118;52.388;9.452;2023-01-16T14:28:48;2.75;;;1.55;;
42488;SDS011;28118;52.388;9.452;2023-01-16T14:33:52;1.20;;;0.75;;
42488;SDS011;28118;52.388;9.452;2023-01-16T14:36:23;1.30;;;0.88;;
42488;SDS011;28118;52.388;9.452;2023-01-16T14:38:52;1.35;;;0.65;;
42488;SDS011;28118;52.388;9.452;2023-01-16T14:41:22;3.88;;;1.77;;
42488;SDS011;28118;52.388;9.452;2023-01-16T14:44:17;1.92;;;1.13;;
42488;SDS011;28118;52.388;9.452;2023-01-16T14:47:22;1.10;;;0.90;;
42488;SDS011;28118;52.388;9.452;2023-01-16T14:50:13;1.90;;;1.75;;
42488;SDS011;28118;52.388;9.452;2023-01-16T14:56:00;1.27;;;0.98;;
42488;SDS011;28118;52.388;9.452;2023-01-16T14:58:41;1.88;;;1.25;;
42488;SDS011;28118;52.388;9.452;2023-01-16T15:01:25;2.72;;;1.85;;
42488;SDS011;28118;52.388;9.452;2023-01-16T15:04:13;2.97;;;1.23;;
42488;SDS011;28118;52.388;9.452;2023-01-16T15:06:43;1.17;;;0.77;;
42488;SDS011;28118;52.388;9.452;2023-01-16T15:09:15;2.83;;;1.33;;
42488;SDS011;28118;52.388;9.452;2023-01-16T15:12:00;2.85;;;1.25;;
42488;SDS011;28118;52.388;9.452;2023-01-16T15:14:28;0.98;;;0.75;;
42488;SDS011;28118;52.388;9.452;2023-01-16T15:22:56;1.95;;;1.10;;
42488;SDS011;28118;52.388;9.452;2023-01-16T15:25:46;3.15;;;1.60;;
42488;SDS011;28118;52.388;9.452;2023-01-16T15:31:29;1.70;;;1.10;;
42488;SDS011;28118;52.388;9.452;2023-01-16T15:36:37;3.28;;;2.25;;
42488;SDS011;28118;52.388;9.452;2023-01-16T15:41:32;2.72;;;1.83;;
42488;SDS011;28118;52.388;9.452;2023-01-16T15:44:18;1.90;;;1.45;;
42488;SDS011;28118;52.388;9.452;2023-01-16T15:52:16;1.70;;;1.33;;
42488;SDS011;28118;52.388;9.452;2023-01-16T15:54:42;3.33;;;2.55;;
42488;SDS011;28118;52.388;9.452;2023-01-16T15:57:16;3.08;;;1.70;;
42488;SDS011;28118;52.388;9.452;2023-01-16T15:59:49;1.45;;;1.15;;
42488;SDS011;28118;52.388;9.452;2023-01-16T16:02:24;2.03;;;1.83;;
42488;SDS011;28118;52.388;9.452;2023-01-16T16:04:56;1.83;;;1.45;;
42488;SDS011;28118;52.388;9.452;2023-01-16T16:07:25;3.22;;;2.25;;
42488;SDS011;28118;52.388;9.452;2023-01-16T16:09:59;3.60;;;2.25;;
42488;SDS011;28118;52.388;9.452;2023-01-16T16:12:28;3.42;;;1.67;;
42488;SDS011;28118;52.388;9.452;2023-01-16T16:15:02;2.42;;;1.70;;
42488;SDS011;28118;52.388;9.452;2023-01-16T16:18:01;2.03;;;1.30;;
42488;SDS011;28118;52.388;9.452;2023-01-16T16:20:40;2.13;;;1.48;;
42488;SDS011;28118;52.388;9.452;2023-01-16T16:31:02;1.33;;;1.05;;
42488;SDS011;28118;52.388;9.452;2023-01-16T16:33:42;6.28;;;2.05;;
42488;SDS011;28118;52.388;9.452;2023-01-16T16:36:19;2.78;;;1.80;;
42488;SDS011;28118;52.388;9.452;2023-01-16T16:38:46;3.38;;;1.98;;
42488;SDS011;28118;52.388;9.452;2023-01-16T16:43:45;9.80;;;2.80;;
42488;SDS011;28118;52.388;9.452;2023-01-16T16:48:51;2.28;;;1.67;;
42488;SDS011;28118;52.388;9.452;2023-01-16T16:51:19;1.58;;;1.35;;
42488;SDS011;28118;52.388;9.452;2023-01-16T16:54:05;2.42;;;1.40;;
42488;SDS011;28118;52.388;9.452;2023-01-16T16:56:38;3.25;;;1.83;;
42488;SDS011;28118;52.388;9.452;2023-01-16T16:59:20;6.63;;;2.42;;
42488;SDS011;28118;52.388;9.452;2023-01-16T17:01:51;3.92;;;2.55;;
42488;SDS011;28118;52.388;9.452;2023-01-16T17:04:21;2.15;;;1.95;;
42488;SDS011;28118;52.388;9.452;2023-01-16T17:06:48;2.22;;;1.77;;
42488;SDS011;28118;52.388;9.452;2023-01-16T17:09:17;2.45;;;1.70;;
42488;SDS011;28118;52.388;9.452;2023-01-16T17:11:44;7.18;;;2.35;;
42488;SDS011;28118;52.388;9.452;2023-01-16T17:14:12;2.72;;;2.13;;
42488;SDS011;28118;52.388;9.452;2023-01-16T17:16:39;6.25;;;2.13;;
42488;SDS011;28118;52.388;9.452;2023-01-16T17:19:51;8.18;;;3.28;;
42488;SDS011;28118;52.388;9.452;2023-01-16T17:21:55;3.08;;;2.10;;
42488;SDS011;28118;52.388;9.452;2023-01-16T17:24:22;7.57;;;2.67;;
42488;SDS011;28118;52.388;9.452;2023-01-16T17:26:49;3.70;;;2.15;;
42488;SDS011;28118;52.388;9.452;2023-01-16T17:29:15;13.50;;;7.38;;
42488;SDS011;28118;52.388;9.452;2023-01-16T17:31:43;21.50;;;14.68;;
42488;SDS011;28118;52.388;9.452;2023-01-16T17:34:14;10.38;;;7.20;;
42488;SDS011;28118;52.388;9.452;2023-01-16T17:36:42;3.67;;;1.92;;
42488;SDS011;28118;52.388;9.452;2023-01-16T17:39:09;2.30;;;1.92;;
42488;SDS011;28118;52.388;9.452;2023-01-16T17:41:37;3.35;;;2.10;;
42488;SDS011;28118;52.388;9.452;2023-01-16T17:44:07;2.33;;;1.70;;
42488;SDS011;28118;52.388;9.452;2023-01-16T17:47:01;2.95;;;2.42;;
42488;SDS011;28118;52.388;9.452;2023-01-16T17:49:27;5.13;;;2.00;;
42488;SDS011;28118;52.388;9.452;2023-01-16T17:51:54;4.75;;;2.53;;
42488;SDS011;28118;52.388;9.452;2023-01-16T17:54:21;3.30;;;2.58;;
42488;SDS011;28118;52.388;9.452;2023-01-16T17:57:06;2.10;;;1.55;;
42488;SDS011;28118;52.388;9.452;2023-01-16T17:59:33;2.25;;;1.65;;
42488;SDS011;28118;52.388;9.452;2023-01-16T18:01:59;6.97;;;4.43;;
42488;SDS011;28118;52.388;9.452;2023-01-16T18:04:26;4.35;;;2.75;;
42488;SDS011;28118;52.388;9.452;2023-01-16T18:06:58;5.25;;;3.13;;
42488;SDS011;28118;52.388;9.452;2023-01-16T18:09:25;5.25;;;3.85;;
42488;SDS011;28118;52.388;9.452;2023-01-16T18:11:52;3.85;;;3.20;;
42488;SDS011;28118;52.388;9.452;2023-01-16T18:14:37;6.00;;;3.35;;
42488;SDS011;28118;52.388;9.452;2023-01-16T18:17:22;2.70;;;2.20;;
42488;SDS011;28118;52.388;9.452;2023-01-16T18:19:50;4.05;;;2.75;;
42488;SDS011;28118;52.388;9.452;2023-01-16T18:22:22;1.60;;;1.35;;
42488;SDS011;28118;52.388;9.452;2023-01-16T18:24:50;3.03;;;2.25;;